Time;durP1;ratioP1;P1;durP2;ratioP2;P2;SDS_P1;SDS_P2;PMS_P1;PMS_P2;Temp;Humidity;BMP_temperature;BMP_pressure;BME280_temperature;BME280_humidity;BME280_pressure;Samples;Min_cycle;Max_cycle;Signal;HPM_P1;HPM_P2
2021/03/26 00:00:27;;;;;;;10.07;7.43;;;;;;;8.60;83.64;98700.81;5096161;28;20241;-69
2021/03/26 00:02:53;;;;;;;10.77;8.17;;;;;;;8.58;83.71;98697.38;5096105;28;20213;-70
2021/03/26 00:05:19;;;;;;;13.07;7.80;;;;;;;8.57;83.38;98700.13;5095794;28;20737;-71
2021/03/26 00:07:46;;;;;;;12.90;8.13;;;;;;;8.58;83.49;98697.38;5096038;28;20255;-70
2021/03/26 00:10:14;;;;;;;10.17;7.60;;;;;;;8.59;83.40;98698.25;5094232;28;20217;-70
2021/03/26 00:12:40;;;;;;;10.00;8.10;;;;;;;8.60;83.31;98700.81;5095512;28;20207;-70
2021/03/26 00:15:09;;;;;;;9.47;7.80;;;;;;;8.65;82.98;98697.91;5095940;28;20237;-68
2021/03/26 00:17:35;;;;;;;11.40;8.37;;;;;;;8.72;82.48;98699.28;5095898;28;20263;-67
2021/03/26 00:20:02;;;;;;;11.23;7.50;;;;;;;8.77;82.76;98692.88;5095533;28;20698;-68
2021/03/26 00:22:28;;;;;;;9.90;6.93;;;;;;;8.81;82.27;98701.47;5095468;28;20221;-66
2021/03/26 00:24:54;;;;;;;9.60;7.40;;;;;;;8.87;83.10;98698.50;5095518;28;20213;-67
2021/03/26 00:27:20;;;;;;;8.97;7.70;;;;;;;8.94;82.94;98694.59;5095645;28;20297;-68
2021/03/26 00:29:46;;;;;;;12.17;7.83;;;;;;;8.91;82.51;98690.34;5095576;28;20350;-67
2021/03/26 00:32:12;;;;;;;10.93;7.73;;;;;;;8.94;82.92;98697.25;5095485;28;20207;-67
2021/03/26 00:34:38;;;;;;;9.73;6.93;;;;;;;9.01;82.29;98690.69;5095273;28;20226;-67
2021/03/26 00:37:05;;;;;;;8.93;7.20;;;;;;;9.06;82.08;98683.41;5093537;28;20217;-67
2021/03/26 00:39:32;;;;;;;11.30;7.80;;;;;;;9.08;81.21;98694.69;5095425;28;20218;-67
2021/03/26 00:41:58;;;;;;;9.10;6.70;;;;;;;9.08;80.88;98686.78;5095307;28;20248;-66
2021/03/26 00:44:24;;;;;;;11.40;7.60;;;;;;;9.04;80.65;98685.25;5095361;28;20270;-67
2021/03/26 00:46:50;;;;;;;9.20;7.17;;;;;;;8.93;81.18;98683.19;5094972;28;20278;-67
2021/03/26 00:49:16;;;;;;;8.77;7.00;;;;;;;8.78;81.83;98694.56;5094420;28;20211;-67
2021/03/26 00:51:42;;;;;;;12.93;7.53;;;;;;;8.67;83.00;98685.50;5094787;28;20216;-67
2021/03/26 00:54:11;;;;;;;10.20;7.80;;;;;;;8.48;84.11;98684.78;5094711;28;20260;-66
2021/03/26 00:56:37;;;;;;;10.53;7.40;;;;;;;8.31;85.59;98685.66;5094798;28;20670;-67
2021/03/26 00:59:03;;;;;;;10.10;7.40;;;;;;;8.09;86.41;98692.06;5094800;28;20217;-67
2021/03/26 01:01:29;;;;;;;9.83;7.47;;;;;;;7.98;86.46;98691.75;5094652;28;20210;-67
2021/03/26 01:03:55;;;;;;;10.80;7.63;;;;;;;7.83;87.19;98684.63;5093354;28;20216;-67
2021/03/26 01:06:22;;;;;;;9.43;7.40;;;;;;;7.74;87.98;98682.44;5094818;28;20304;-67
2021/03/26 01:08:48;;;;;;;10.33;7.13;;;;;;;7.66;87.83;98682.78;5094483;28;20675;-67
2021/03/26 01:11:18;;;;;;;10.17;7.77;;;;;;;7.53;89.47;98680.84;5094723;28;20232;-67
2021/03/26 01:13:45;;;;;;;11.93;7.50;;;;;;;7.42;89.67;98677.88;5094525;28;20249;-67
2021/03/26 01:16:12;;;;;;;11.70;7.77;;;;;;;7.31;90.93;98674.91;5094721;28;20218;-67
2021/03/26 01:18:42;;;;;;;11.03;7.43;;;;;;;7.33;90.51;98673.06;5094702;28;20213;-67
2021/03/26 01:21:10;;;;;;;12.47;8.13;;;;;;;7.27;90.97;98678.59;5094704;28;20218;-68
2021/03/26 01:23:36;;;;;;;10.87;7.87;;;;;;;7.26;91.02;98682.16;5094196;28;20236;-69
2021/03/26 01:26:02;;;;;;;9.33;7.20;;;;;;;7.20;90.32;98671.94;5094535;28;20214;-66
2021/03/26 01:28:30;;;;;;;9.43;6.87;;;;;;;7.10;90.48;98681.19;5092716;28;20210;-68
2021/03/26 01:30:57;;;;;;;11.33;7.43;;;;;;;6.92;91.55;98666.28;5094407;28;20210;-67
2021/03/26 01:33:24;;;;;;;12.60;8.17;;;;;;;6.78;92.58;98667.84;5094064;28;20237;-67
2021/03/26 01:35:51;;;;;;;9.87;7.00;;;;;;;6.79;92.79;98675.63;5094090;28;20677;-67
2021/03/26 01:38:18;;;;;;;11.60;7.40;;;;;;;6.77;92.98;98671.38;5094262;28;20224;-67
2021/03/26 01:40:47;;;;;;;9.57;7.37;;;;;;;6.63;93.77;98676.38;5094190;28;20233;-68
2021/03/26 01:43:15;;;;;;;11.27;7.63;;;;;;;6.64;93.49;98665.81;5094080;28;20207;-67
2021/03/26 01:45:43;;;;;;;14.57;8.00;;;;;;;6.60;93.74;98674.75;5094128;28;20596;-67
2021/03/26 01:48:13;;;;;;;10.87;7.90;;;;;;;6.60;94.74;98674.75;5093756;28;20667;-67
2021/03/26 01:50:39;;;;;;;12.27;8.27;;;;;;;6.63;94.65;98665.88;5093692;28;20329;-67
2021/03/26 01:53:07;;;;;;;11.17;8.17;;;;;;;6.66;94.32;98669.22;5094015;28;20214;-67
2021/03/26 01:55:38;;;;;;;10.93;8.07;;;;;;;6.69;94.72;98661.22;5092236;28;20217;-67
2021/03/26 01:58:04;;;;;;;11.87;8.10;;;;;;;6.68;94.48;98656.88;5093948;28;20267;-68
2021/03/26 02:00:34;;;;;;;11.70;8.20;;;;;;;6.77;95.16;98647.75;5093700;28;20209;-69
2021/03/26 02:03:06;;;;;;;11.43;8.30;;;;;;;6.77;95.39;98650.38;5093515;28;20209;-68
2021/03/26 02:05:33;;;;;;;10.70;7.87;;;;;;;6.74;95.18;98651.34;5093567;28;20683;-68
2021/03/26 02:07:59;;;;;;;10.20;7.60;;;;;;;6.66;94.88;98650.84;5093676;28;20564;-67
2021/03/26 02:10:26;;;;;;;11.43;7.93;;;;;;;6.65;94.87;98646.50;5093369;28;20212;-67
2021/03/26 02:13:00;;;;;;;14.13;8.40;;;;;;;6.56;95.26;98661.81;5093546;28;20293;-70
2021/03/26 02:15:30;;;;;;;10.77;7.83;;;;;;;6.50;95.58;98657.72;5093679;28;20204;-70
2021/03/26 02:17:56;;;;;;;11.47;8.00;;;;;;;6.40;95.80;98650.31;5093201;28;20687;-69
2021/03/26 02:20:36;;;;;;;10.33;7.77;;;;;;;6.35;96.59;98647.03;5092440;28;20208;-68
2021/03/26 02:23:06;;;;;;;11.30;8.13;;;;;;;6.32;96.08;98641.91;5093579;28;20212;-69
2021/03/26 02:25:32;;;;;;;14.00;9.60;;;;;;;6.38;95.53;98642.50;5093418;28;20211;-69
2021/03/26 02:27:58;;;;;;;17.10;9.47;;;;;;;6.42;95.80;98649.31;5093362;28;20210;-69
2021/03/26 02:30:30;;;;;;;12.63;9.80;;;;;;;6.41;95.64;98644.16;5093417;28;20387;-69
2021/03/26 02:32:56;;;;;;;13.23;8.77;;;;;;;6.40;95.90;98652.94;5093328;28;20209;-69
2021/03/26 02:35:26;;;;;;;13.90;9.87;;;;;;;6.40;96.21;98655.56;5093229;28;20230;-68
2021/03/26 02:37:55;;;;;;;13.87;10.17;;;;;;;6.39;97.11;98665.22;5093317;28;20219;-68
2021/03/26 02:40:29;;;;;;;17.53;10.77;;;;;;;6.37;97.80;98667.06;5093304;28;20218;-68
2021/03/26 02:43:02;;;;;;;15.23;10.40;;;;;;;6.31;98.73;98662.09;5092961;28;20220;-67
2021/03/26 02:45:36;;;;;;;14.17;10.07;;;;;;;6.18;99.97;98665.28;5093311;28;20212;-67
2021/03/26 02:48:11;;;;;;;15.60;10.10;;;;;;;6.02;100.00;98667.72;5091660;28;20623;-68
2021/03/26 02:51:01;;;;;;;16.93;11.00;;;;;;;5.90;100.00;98665.63;5092931;28;20210;-67
2021/03/26 02:53:35;;;;;;;15.20;10.17;;;;;;;5.69;100.00;98665.63;5089558;28;20274;-66
2021/03/26 02:56:07;;;;;;;11.97;9.23;;;;;;;5.57;100.00;98660.91;5092768;28;20204;-68
2021/03/26 02:58:37;;;;;;;13.87;10.40;;;;;;;5.42;100.00;98659.75;5092958;28;20207;-67
2021/03/26 03:01:11;;;;;;;14.40;10.27;;;;;;;5.32;100.00;98652.31;5093321;28;20217;-68
2021/03/26 03:03:40;;;;;;;16.77;10.60;;;;;;;5.33;100.00;98657.50;5092996;28;20208;-67
2021/03/26 03:06:11;;;;;;;16.90;10.93;;;;;;;5.48;100.00;98651.63;5093174;28;20203;-67
2021/03/26 03:08:38;;;;;;;16.63;11.13;;;;;;;5.61;100.00;98644.97;5093012;28;20215;-67
2021/03/26 03:11:11;;;;;;;17.00;11.10;;;;;;;5.75;100.00;98639.16;5093221;28;20268;-67
2021/03/26 03:13:41;;;;;;;14.90;10.03;;;;;;;5.80;100.00;98642.47;5095358;28;20697;-66
2021/03/26 03:16:14;;;;;;;14.23;10.00;;;;;;;5.83;100.00;98637.94;5097030;28;20264;-67
2021/03/26 03:18:45;;;;;;;10.90;9.10;;;;;;;5.87;100.00;98636.03;5096802;28;20685;-67
2021/03/26 03:21:20;;;;;;;11.13;9.20;;;;;;;5.81;100.00;98644.19;5097072;28;20229;-68
2021/03/26 03:23:55;;;;;;;12.10;9.07;;;;;;;5.75;100.00;98645.22;5096509;28;20221;-68
2021/03/26 03:26:26;;;;;;;14.80;9.70;;;;;;;5.68;100.00;98649.03;5096516;28;20682;-69
2021/03/26 03:29:02;;;;;;;16.10;9.60;;;;;;;5.65;100.00;98643.94;5096559;28;20212;-67
2021/03/26 03:31:35;;;;;;;14.27;9.83;;;;;;;5.55;100.00;98637.34;5096427;28;20215;-68
2021/03/26 03:34:08;;;;;;;13.70;9.83;;;;;;;5.55;100.00;98637.34;5096500;28;20246;-68
2021/03/26 03:36:44;;;;;;;15.03;10.90;;;;;;;5.54;100.00;98646.13;5096641;28;20272;-69
2021/03/26 03:39:15;;;;;;;14.30;10.17;;;;;;;5.60;100.00;98640.66;5094578;28;20694;-69
2021/03/26 03:41:46;;;;;;;14.47;10.57;;;;;;;5.68;100.00;98637.72;5096618;28;20211;-72
2021/03/26 03:44:16;;;;;;;13.33;9.37;;;;;;;5.73;100.00;98631.34;5096569;28;20253;-71
2021/03/26 03:46:50;;;;;;;14.53;9.47;;;;;;;5.80;100.00;98629.38;5096366;28;20214;-71
2021/03/26 03:49:26;;;;;;;16.50;10.67;;;;;;;5.84;100.00;98637.03;5096488;28;20553;-72
2021/03/26 03:51:58;;;;;;;15.97;11.00;;;;;;;5.89;100.00;98632.44;5096452;28;20577;-70
2021/03/26 03:54:30;;;;;;;12.73;9.57;;;;;;;5.96;100.00;98639.13;5096215;28;20231;-70
2021/03/26 03:57:00;;;;;;;16.17;9.67;;;;;;;5.94;100.00;98627.00;5096021;28;20256;-70
2021/03/26 03:59:34;;;;;;;13.57;10.00;;;;;;;5.84;100.00;98634.41;5096129;28;20208;-70
2021/03/26 04:02:04;;;;;;;14.30;10.33;;;;;;;5.80;100.00;98630.19;5095857;28;20578;-68
2021/03/26 04:04:37;;;;;;;13.00;9.90;;;;;;;5.75;100.00;98629.50;5095764;28;20214;-67
2021/03/26 04:07:08;;;;;;;15.80;10.10;;;;;;;5.70;100.00;98630.63;5095403;28;20258;-67
2021/03/26 04:09:38;;;;;;;15.63;10.57;;;;;;;5.66;100.00;98635.16;5096012;28;20205;-67
2021/03/26 04:12:11;;;;;;;15.10;10.00;;;;;;;5.62;100.00;98632.72;5095932;28;20230;-68
2021/03/26 04:14:42;;;;;;;14.50;9.50;;;;;;;5.61;100.00;98631.84;5095385;28;20254;-70
2021/03/26 04:17:15;;;;;;;15.97;10.40;;;;;;;5.67;100.00;98633.38;5095968;28;20208;-69
2021/03/26 04:19:45;;;;;;;15.60;10.53;;;;;;;5.75;100.00;98634.75;5095881;28;20208;-68
2021/03/26 04:22:16;;;;;;;15.73;11.33;;;;;;;5.82;100.00;98638.00;5095734;28;20211;-68
2021/03/26 04:24:46;;;;;;;14.63;10.20;;;;;;;5.84;100.00;98639.66;5094574;28;20677;-67
2021/03/26 04:27:19;;;;;;;14.67;10.03;;;;;;;5.91;100.00;98635.84;5095321;28;20210;-68
2021/03/26 04:29:50;;;;;;;16.70;10.67;;;;;;;5.93;100.00;98643.66;5095345;28;20213;-68
2021/03/26 04:32:17;;;;;;;16.13;10.43;;;;;;;5.96;100.00;98633.88;5093990;28;20221;-67
2021/03/26 04:34:45;;;;;;;14.60;10.73;;;;;;;5.99;100.00;98636.34;5095155;28;20232;-67
2021/03/26 04:37:19;;;;;;;12.53;9.87;;;;;;;6.04;100.00;98631.78;5095560;28;20223;-69
2021/03/26 04:39:51;;;;;;;15.07;10.23;;;;;;;6.05;100.00;98625.59;5095531;28;20243;-68
2021/03/26 04:42:24;;;;;;;12.97;9.90;;;;;;;5.97;100.00;98625.09;5095229;28;20208;-68
2021/03/26 04:44:53;;;;;;;12.50;9.90;;;;;;;5.86;100.00;98632.56;5095541;28;20253;-70
2021/03/26 04:47:27;;;;;;;13.53;10.13;;;;;;;5.79;100.00;98619.72;5095349;28;20208;-70
2021/03/26 04:49:57;;;;;;;13.33;9.67;;;;;;;5.74;100.00;98622.56;5095054;28;20210;-69
2021/03/26 04:52:32;;;;;;;15.33;10.33;;;;;;;5.67;100.00;98628.16;5094860;28;20208;-70
2021/03/26 04:55:05;;;;;;;13.47;10.70;;;;;;;5.61;100.00;98621.38;5094779;28;20270;-69
2021/03/26 04:57:38;;;;;;;15.07;9.73;;;;;;;5.59;100.00;98617.09;5093119;28;20711;-68
2021/03/26 05:00:10;;;;;;;13.03;9.57;;;;;;;5.60;100.00;98619.66;5095037;28;20223;-69
2021/03/26 05:02:41;;;;;;;14.17;10.20;;;;;;;5.60;100.00;98614.41;5094841;28;20210;-69
2021/03/26 05:05:09;;;;;;;14.50;10.50;;;;;;;5.64;100.00;98625.63;5094960;28;20203;-67
2021/03/26 05:07:39;;;;;;;16.30;10.73;;;;;;;5.65;100.00;98614.22;5094853;28;20205;-67
2021/03/26 05:10:09;;;;;;;14.07;10.53;;;;;;;5.61;100.00;98608.25;5094608;28;20212;-68
2021/03/26 05:12:43;;;;;;;14.67;10.03;;;;;;;5.53;100.00;98610.34;5094645;28;20215;-68
2021/03/26 05:15:15;;;;;;;13.40;9.60;;;;;;;5.34;100.00;98613.78;5094945;28;20239;-67
2021/03/26 05:17:46;;;;;;;14.67;10.17;;;;;;;5.15;100.00;98616.31;5094860;28;20215;-68
2021/03/26 05:20:21;;;;;;;13.73;10.00;;;;;;;4.98;100.00;98608.25;5094678;28;20551;-68
2021/03/26 05:22:54;;;;;;;12.70;9.10;;;;;;;4.82;100.00;98620.25;5093405;28;20237;-67
2021/03/26 05:25:27;;;;;;;16.07;11.10;;;;;;;4.67;100.00;98615.59;5094317;28;20211;-69
2021/03/26 05:27:55;;;;;;;14.33;10.30;;;;;;;4.60;100.00;98622.00;5094109;28;20222;-68
2021/03/26 05:30:24;;;;;;;14.90;10.20;;;;;;;4.56;100.00;98609.06;5094063;28;20218;-68
2021/03/26 05:32:55;;;;;;;15.87;11.30;;;;;;;4.48;100.00;98616.34;5094344;28;20226;-69
2021/03/26 05:35:24;;;;;;;14.10;10.27;;;;;;;4.34;100.00;98619.47;5093981;28;20234;-69
2021/03/26 05:38:00;;;;;;;14.23;9.93;;;;;;;4.30;100.00;98615.28;5094247;28;20583;-69
2021/03/26 05:40:40;;;;;;;15.27;10.93;;;;;;;4.29;100.00;98616.16;5094320;28;20214;-68
2021/03/26 05:43:15;;;;;;;15.67;10.60;;;;;;;4.30;100.00;98614.41;5094122;28;20203;-70
2021/03/26 05:45:51;;;;;;;14.40;9.83;;;;;;;4.30;100.00;98611.78;5094274;28;20207;-69
2021/03/26 05:48:31;;;;;;;15.63;10.40;;;;;;;4.35;100.00;98623.78;5093845;28;20687;-68
2021/03/26 05:51:41;;;;;;;12.93;10.03;;;;;;;4.40;100.00;98614.00;5092267;28;20212;-67
2021/03/26 05:54:24;;;;;;;15.63;9.73;;;;;;;4.46;100.00;98613.78;5093738;28;20234;-68
2021/03/26 05:57:00;;;;;;;17.93;10.93;;;;;;;4.56;100.00;98620.38;5093841;28;20207;-67
2021/03/26 05:59:37;;;;;;;16.87;11.50;;;;;;;4.66;100.00;98619.16;5093946;28;20202;-68
2021/03/26 06:02:35;;;;;;;15.87;11.27;;;;;;;4.82;100.00;98612.38;5093952;28;20301;-68
2021/03/26 06:05:33;;;;;;;13.83;10.57;;;;;;;4.99;100.00;98614.34;5093364;28;20560;-69
2021/03/26 06:08:36;;;;;;;16.50;11.27;;;;;;;5.32;100.00;98624.31;5093461;28;20692;-68
2021/03/26 06:11:19;;;;;;;17.53;10.63;;;;;;;5.66;100.00;98627.28;5093805;28;20211;-69
2021/03/26 06:14:12;;;;;;;14.80;9.97;;;;;;;5.99;100.00;98620.63;5093862;28;20243;-68
2021/03/26 06:16:51;;;;;;;12.63;9.53;;;;;;;6.24;100.00;98620.41;5092088;28;20207;-70
2021/03/26 06:20:02;;;;;;;13.93;10.87;;;;;;;6.35;100.00;98626.88;5093693;28;20351;-68
2021/03/26 06:22:56;;;;;;;12.07;10.10;;;;;;;6.54;100.00;98622.50;5056927;28;20212;-68
2021/03/26 06:25:52;;;;;;;15.73;10.83;;;;;;;6.78;100.00;98637.13;5093288;28;20682;-68
2021/03/26 06:28:28;;;;;;;17.43;12.00;;;;;;;7.07;100.00;98628.75;5093087;28;20674;-67
2021/03/26 06:31:06;;;;;;;18.53;13.00;;;;;;;7.22;99.25;98628.88;5093177;28;20215;-67
2021/03/26 06:34:07;;;;;;;18.57;13.27;;;;;;;7.32;98.97;98635.41;5092955;28;20207;-68
2021/03/26 06:36:46;;;;;;;18.10;12.63;;;;;;;7.44;98.37;98633.94;5093186;28;20205;-68
2021/03/26 06:39:47;;;;;;;17.73;12.53;;;;;;;7.55;97.20;98631.66;5093452;28;20211;-68
2021/03/26 06:42:32;;;;;;;19.23;11.77;;;;;;;7.66;96.17;98624.91;5091631;28;20275;-68
2021/03/26 06:45:33;;;;;;;15.70;12.10;;;;;;;7.73;95.68;98630.75;5093336;28;20291;-68
2021/03/26 06:48:12;;;;;;;18.53;13.03;;;;;;;7.86;93.01;98621.28;5093003;28;20544;-68
2021/03/26 06:51:06;;;;;;;18.93;13.67;;;;;;;7.91;92.88;98617.50;5093202;28;20207;-68
2021/03/26 06:53:39;;;;;;;20.87;13.83;;;;;;;8.03;92.05;98624.75;5086002;28;20267;-67
2021/03/26 06:56:25;;;;;;;17.20;12.73;;;;;;;8.14;92.75;98624.22;5093233;28;20206;-67
2021/03/26 06:59:15;;;;;;;15.47;12.20;;;;;;;8.44;90.71;98625.31;5093124;28;20216;-68
2021/03/26 07:01:49;;;;;;;17.37;12.23;;;;;;;8.71;88.70;98622.03;5093034;28;20217;-68
2021/03/26 07:04:42;;;;;;;17.43;13.03;;;;;;;8.80;86.73;98618.91;5093107;28;20220;-68
2021/03/26 07:07:46;;;;;;;15.97;12.33;;;;;;;8.88;86.02;98621.13;5091474;28;20266;-68
2021/03/26 07:10:24;;;;;;;16.00;11.70;;;;;;;8.99;86.34;98624.03;5090667;28;20210;-68
2021/03/26 07:13:22;;;;;;;18.67;12.70;;;;;;;9.17;85.17;98613.28;5092734;28;20238;-68
2021/03/26 07:15:59;;;;;;;17.90;12.93;;;;;;;9.38;83.79;98611.25;5093127;28;20234;-68
2021/03/26 07:18:43;;;;;;;19.00;12.97;;;;;;;9.53;83.50;98611.22;5092782;28;20211;-68
2021/03/26 07:21:11;;;;;;;18.50;12.70;;;;;;;9.60;83.23;98607.28;5092705;28;20206;-68
2021/03/26 07:24:13;;;;;;;17.37;12.80;;;;;;;9.66;82.98;98611.38;5092832;28;20222;-68
2021/03/26 07:27:03;;;;;;;18.07;12.70;;;;;;;9.67;81.38;98613.06;5092964;28;20204;-68
2021/03/26 07:29:59;;;;;;;14.97;11.57;;;;;;;9.79;80.43;98618.47;5083992;28;20689;-68
2021/03/26 07:32:32;;;;;;;16.73;11.43;;;;;;;9.93;79.74;98615.88;5083764;28;20659;-68
2021/03/26 07:35:17;;;;;;;17.43;12.73;;;;;;;10.12;79.29;98615.66;5090831;28;20716;-68
2021/03/26 07:37:56;;;;;;;14.63;11.23;;;;;;;10.35;78.05;98612.50;5092847;28;20234;-68
2021/03/26 07:40:38;;;;;;;18.03;11.73;;;;;;;10.64;77.06;98619.50;5092849;28;20263;-68
2021/03/26 07:43:41;;;;;;;15.90;11.30;;;;;;;10.92;75.92;98608.88;5092663;28;20207;-68
2021/03/26 07:46:31;;;;;;;18.97;11.37;;;;;;;11.11;74.52;98604.13;5067501;28;20211;-68
2021/03/26 07:49:15;;;;;;;16.07;11.90;;;;;;;11.09;75.11;98606.03;5092659;28;20206;-67
2021/03/26 07:51:48;;;;;;;15.40;10.73;;;;;;;10.95;75.64;98604.25;5092692;28;20211;-68
2021/03/26 07:54:34;;;;;;;16.73;11.97;;;;;;;10.82;77.38;98597.19;5091419;28;20295;-68
2021/03/26 07:57:14;;;;;;;14.37;11.50;;;;;;;10.73;76.28;98600.41;5091876;28;20764;-68
2021/03/26 08:00:06;;;;;;;18.93;12.10;;;;;;;10.64;78.04;98603.63;5093401;28;20261;-68
2021/03/26 08:02:58;;;;;;;16.63;11.87;;;;;;;10.63;80.20;98601.91;5092891;28;20207;-67
2021/03/26 08:05:30;;;;;;;13.80;10.73;;;;;;;10.76;78.44;98602.88;5094268;28;20232;-67
2021/03/26 08:08:17;;;;;;;14.43;10.27;;;;;;;10.82;78.28;98598.03;5094808;28;20553;-67
2021/03/26 08:10:50;;;;;;;15.57;10.67;;;;;;;11.06;74.25;98603.59;5085645;28;20215;-67
2021/03/26 08:13:38;;;;;;;14.70;11.10;;;;;;;11.18;74.14;98600.16;5072964;28;20746;-67
2021/03/26 08:16:22;;;;;;;16.03;10.23;;;;;;;11.34;73.99;98599.06;5074944;28;20215;-69
2021/03/26 08:18:57;;;;;;;13.63;10.27;;;;;;;11.47;75.25;98601.75;5074825;28;20615;-67
2021/03/26 08:21:32;;;;;;;13.33;10.33;;;;;;;11.53;73.34;98602.22;5075104;28;20232;-67
2021/03/26 08:24:27;;;;;;;15.07;10.60;;;;;;;11.54;71.77;98598.59;5074901;28;20211;-67
2021/03/26 08:27:03;;;;;;;12.97;9.43;;;;;;;11.67;72.49;98594.22;5072939;28;20759;-67
2021/03/26 08:29:38;;;;;;;13.57;9.60;;;;;;;11.71;72.12;98597.53;5074918;28;20215;-68
2021/03/26 08:32:34;;;;;;;12.50;9.07;;;;;;;11.77;71.16;98599.75;5074568;28;20684;-68
2021/03/26 08:35:22;;;;;;;11.37;9.23;;;;;;;11.80;70.43;98602.22;5074602;28;20242;-69
2021/03/26 08:37:58;;;;;;;13.33;9.93;;;;;;;11.90;69.41;98600.63;5074478;28;20218;-68
2021/03/26 08:40:40;;;;;;;13.30;8.47;;;;;;;12.01;67.66;98598.13;5074550;28;20211;-67
2021/03/26 08:43:09;;;;;;;10.17;8.40;;;;;;;12.09;67.94;98595.78;5089628;28;20202;-67
2021/03/26 08:45:39;;;;;;;12.60;7.90;;;;;;;12.14;67.18;98591.03;5094735;28;20268;-68
2021/03/26 08:48:23;;;;;;;9.87;8.30;;;;;;;12.25;67.21;98586.72;5094983;28;20574;-67
2021/03/26 08:51:01;;;;;;;10.73;7.73;;;;;;;12.42;66.93;98593.50;5094130;28;20237;-71
2021/03/26 08:53:37;;;;;;;11.07;8.87;;;;;;;12.60;66.95;98594.88;5090842;28;20214;-71
2021/03/26 08:56:37;;;;;;;10.47;8.67;;;;;;;12.70;64.58;98585.28;5093793;28;20207;-73
2021/03/26 08:59:32;;;;;;;11.17;8.30;;;;;;;12.67;64.11;98581.09;5091699;28;20577;-72
2021/03/26 09:02:21;;;;;;;11.10;8.07;;;;;;;12.71;65.10;98573.75;5087309;28;20219;-72
2021/03/26 09:05:23;;;;;;;12.97;8.17;;;;;;;12.81;64.61;98580.09;5076082;28;20239;-72
2021/03/26 09:08:04;;;;;;;12.50;7.97;;;;;;;13.03;63.94;98581.13;5072321;28;20582;-70
2021/03/26 09:11:02;;;;;;;11.03;7.67;;;;;;;13.19;61.29;98586.16;5072360;28;20213;-70
2021/03/26 09:13:37;;;;;;;10.97;8.30;;;;;;;13.33;62.06;98573.59;5073038;28;20242;-69
2021/03/26 09:16:07;;;;;;;11.83;8.67;;;;;;;13.36;62.92;98578.69;5073918;28;20215;-69
2021/03/26 09:18:52;;;;;;;10.67;8.67;;;;;;;13.53;64.51;98575.66;5074064;28;20209;-69
2021/03/26 09:21:37;;;;;;;13.10;8.70;;;;;;;13.56;63.43;98570.09;5072112;28;20203;-69
2021/03/26 09:24:46;;;;;;;9.20;8.17;;;;;;;13.58;62.44;98570.00;5073701;28;20268;-68
2021/03/26 09:27:24;;;;;;;11.73;8.00;;;;;;;13.77;63.20;98568.50;5073498;28;20293;-68
2021/03/26 09:30:01;;;;;;;10.73;7.80;;;;;;;13.86;61.46;98564.28;5073807;28;20220;-69
2021/03/26 09:32:31;;;;;;;11.50;8.23;;;;;;;14.03;61.13;98564.72;5073324;28;20271;-69
2021/03/26 09:35:08;;;;;;;11.30;8.43;;;;;;;14.22;60.63;98564.19;5073513;28;20233;-70
2021/03/26 09:37:44;;;;;;;10.47;7.77;;;;;;;14.30;60.43;98556.47;5073227;28;20215;-69
2021/03/26 09:40:20;;;;;;;13.10;8.13;;;;;;;14.35;58.34;98554.31;5073213;28;20583;-69
2021/03/26 09:42:50;;;;;;;12.27;7.80;;;;;;;14.28;57.84;98547.75;5085512;28;20255;-70
2021/03/26 09:45:25;;;;;;;11.77;7.97;;;;;;;14.31;59.18;98547.53;5093474;28;20214;-69
2021/03/26 09:48:15;;;;;;;8.90;7.27;;;;;;;14.31;59.50;98547.53;5091674;28;20695;-69
2021/03/26 09:50:48;;;;;;;13.27;8.57;;;;;;;14.45;59.74;98536.66;5093433;28;20226;-70
2021/03/26 09:53:18;;;;;;;13.03;8.47;;;;;;;14.70;57.16;98539.06;5093689;28;20214;-69
2021/03/26 09:55:46;;;;;;;9.93;7.57;;;;;;;14.62;56.69;98528.22;5093310;28;20230;-71
2021/03/26 09:58:22;;;;;;;11.47;8.17;;;;;;;14.72;56.68;98526.53;5093411;28;20205;-70
2021/03/26 10:00:54;;;;;;;12.20;8.20;;;;;;;14.93;57.88;98519.47;5093117;28;20216;-69
2021/03/26 10:03:44;;;;;;;11.53;7.57;;;;;;;15.00;56.66;98520.66;5093066;28;20204;-70
2021/03/26 10:06:16;;;;;;;9.97;6.67;;;;;;;15.07;57.15;98528.03;5093128;28;20213;-71
2021/03/26 10:11:34;;;;;;;13.40;8.83;;;;;;;15.40;55.43;98513.81;5092626;28;20212;-70
2021/03/26 10:14:03;;;;;;;11.63;7.90;;;;;;;15.37;54.96;98503.41;5091472;28;20238;-70
2021/03/26 10:16:49;;;;;;;12.00;8.67;;;;;;;15.47;56.16;98509.66;5093031;28;20261;-70
2021/03/26 10:19:18;;;;;;;11.80;9.00;;;;;;;15.36;55.06;98502.56;5092695;28;20209;-69
2021/03/26 10:21:53;;;;;;;11.47;8.50;;;;;;;15.48;56.03;98498.03;5092152;28;20213;-70
2021/03/26 10:24:26;;;;;;;11.33;7.77;;;;;;;15.54;55.21;98500.19;5092480;28;20206;-70
2021/03/26 10:27:02;;;;;;;12.30;8.20;;;;;;;15.62;54.00;98495.06;5093009;28;20212;-71
2021/03/26 10:29:40;;;;;;;10.87;8.80;;;;;;;15.68;55.55;98491.88;5092996;28;20230;-69
2021/03/26 10:32:09;;;;;;;11.30;7.57;;;;;;;15.72;53.30;98488.00;5092816;28;20574;-69
2021/03/26 10:34:41;;;;;;;10.13;7.70;;;;;;;15.81;52.45;98481.88;5092773;28;20241;-69
2021/03/26 10:37:29;;;;;;;11.30;8.20;;;;;;;15.76;51.01;98471.59;5092740;28;20575;-70
2021/03/26 10:40:01;;;;;;;11.70;8.60;;;;;;;15.54;50.60;98462.88;5092155;28;20328;-70
2021/03/26 10:42:39;;;;;;;9.33;7.40;;;;;;;15.63;53.75;98462.13;5092039;28;20210;-70
2021/03/26 10:45:26;;;;;;;13.53;8.53;;;;;;;15.68;52.70;98465.22;5092750;28;20582;-69
2021/03/26 10:47:55;;;;;;;14.50;8.40;;;;;;;15.85;53.47;98456.66;5092258;28;20213;-70
2021/03/26 10:50:42;;;;;;;10.57;8.70;;;;;;;15.86;52.42;98453.00;5092651;28;20210;-70
2021/03/26 10:53:12;;;;;;;10.90;8.13;;;;;;;15.65;52.24;98447.69;5092394;28;20216;-71
2021/03/26 10:55:47;;;;;;;10.20;7.27;;;;;;;15.40;52.36;98447.22;5092263;28;20253;-70
2021/03/26 10:58:21;;;;;;;12.57;8.20;;;;;;;15.48;51.84;98436.75;5092025;28;20218;-71
2021/03/26 11:00:57;;;;;;;10.00;7.50;;;;;;;15.52;53.57;98438.22;5092503;28;20207;-71
2021/03/26 11:03:28;;;;;;;10.37;7.30;;;;;;;15.50;52.73;98437.47;5092594;28;20206;-71
2021/03/26 11:05:58;;;;;;;8.20;6.10;;;;;;;15.59;52.59;98423.38;5092220;28;20210;-71
2021/03/26 11:08:43;;;;;;;12.53;8.80;;;;;;;15.72;50.63;98424.03;5090779;28;20213;-71
2021/03/26 11:11:23;;;;;;;9.57;7.80;;;;;;;15.83;50.42;98419.47;5092598;28;20210;-71
2021/03/26 11:14:18;;;;;;;9.40;6.57;;;;;;;15.93;49.67;98423.03;5092416;28;20231;-71
2021/03/26 11:16:49;;;;;;;9.40;7.10;;;;;;;16.03;49.38;98418.63;5092701;28;20217;-71
2021/03/26 11:19:23;;;;;;;10.57;7.60;;;;;;;16.20;48.45;98421.50;5092029;28;20214;-71
2021/03/26 11:21:53;;;;;;;10.87;7.33;;;;;;;16.37;47.88;98418.19;5092135;28;20300;-71
2021/03/26 11:24:20;;;;;;;8.63;5.93;;;;;;;16.40;45.69;98417.94;5092265;28;20217;-71
2021/03/26 11:27:00;;;;;;;7.93;5.43;;;;;;;16.36;46.51;98411.19;5092227;28;20211;-71
2021/03/26 11:29:30;;;;;;;6.93;4.90;;;;;;;16.27;46.05;98401.31;5092239;28;20266;-71
2021/03/26 11:32:01;;;;;;;8.73;6.50;;;;;;;16.10;46.46;98407.25;5092345;28;20214;-71
2021/03/26 11:34:36;;;;;;;7.57;6.37;;;;;;;16.26;45.88;98404.94;5094523;28;20233;-71
2021/03/26 11:37:09;;;;;;;7.63;5.60;;;;;;;16.09;45.94;98396.75;5096056;28;20221;-71
2021/03/26 11:39:40;;;;;;;8.10;6.10;;;;;;;16.08;45.84;98395.91;5096228;28;20208;-70
2021/03/26 11:42:38;;;;;;;10.77;6.83;;;;;;;16.02;47.13;98380.44;5095767;28;20214;-71
2021/03/26 11:45:19;;;;;;;9.97;6.67;;;;;;;16.24;46.97;98379.41;5095937;28;20210;-71
2021/03/26 11:47:54;;;;;;;7.43;4.97;;;;;;;16.40;44.94;98363.75;5095967;28;20252;-71
2021/03/26 11:50:25;;;;;;;8.73;5.50;;;;;;;16.59;45.26;98359.28;5095892;28;20210;-71
2021/03/26 11:53:28;;;;;;;8.50;5.50;;;;;;;16.62;44.10;98363.50;5095595;28;20213;-71
2021/03/26 11:56:05;;;;;;;6.67;4.70;;;;;;;16.61;43.32;98352.00;5085164;28;20621;-70
2021/03/26 11:58:38;;;;;;;7.60;5.73;;;;;;;16.63;42.79;98350.03;5095612;28;20206;-71
2021/03/26 12:01:08;;;;;;;7.33;5.50;;;;;;;16.83;44.38;98348.25;5095726;28;20203;-71
2021/03/26 12:03:44;;;;;;;7.57;5.00;;;;;;;17.11;43.86;98348.25;5093925;28;20558;-71
2021/03/26 12:06:24;;;;;;;6.13;3.77;;;;;;;17.36;42.67;98339.66;5095516;28;20553;-70
2021/03/26 12:08:58;;;;;;;5.37;4.30;;;;;;;17.55;40.03;98344.97;5095560;28;20607;-71